Time;durP1;ratioP1;P1;durP2;ratioP2;P2;SDS_P1;SDS_P2;PMS_P1;PMS_P2;Temp;Humidity;BMP_temperature;BMP_pressure;BME280_temperature;BME280_humidity;BME280_pressure;Samples;Min_cycle;Max_cycle;Signal;HPM_P1;HPM_P2
2023/07/25 00:00:41;;;;;;;6.40;2.30;;;;;;;21.35;100.00;99159.47;105211;1254;67537;-47
2023/07/25 00:03:08;;;;;;;2.00;1.70;;;;;;;21.33;100.00;99155.81;105274;1257;72722;-48
2023/07/25 00:05:36;;;;;;;2.80;1.80;;;;;;;21.32;100.00;99157.06;105278;1254;61959;-48
2023/07/25 00:08:03;;;;;;;1.70;1.50;;;;;;;21.30;100.00;99153.27;105310;1259;59554;-49
2023/07/25 00:10:33;;;;;;;3.00;1.80;;;;;;;21.27;100.00;99152.44;105176;1259;72988;-48
2023/07/25 00:13:00;;;;;;;4.20;1.90;;;;;;;21.24;100.00;99150.92;108795;1251;67897;-49
2023/07/25 00:15:28;;;;;;;1.60;1.30;;;;;;;21.22;100.00;99144.25;105847;1254;73645;-48
2023/07/25 00:17:56;;;;;;;1.70;1.50;;;;;;;21.18;100.00;99144.63;105297;1254;61664;-48
2023/07/25 00:20:24;;;;;;;1.70;1.40;;;;;;;21.14;100.00;99144.42;105204;1254;59321;-48
2023/07/25 00:22:51;;;;;;;5.40;1.90;;;;;;;21.11;100.00;99138.54;105350;1251;72008;-48
2023/07/25 00:25:19;;;;;;;2.40;1.30;;;;;;;21.07;100.00;99133.45;105260;1259;66815;-48
2023/07/25 00:27:46;;;;;;;2.10;1.80;;;;;;;21.04;100.00;99128.08;105269;1255;71397;-49
2023/07/25 00:30:13;;;;;;;2.30;1.70;;;;;;;21.01;100.00;99121.98;105190;1256;60380;-48
2023/07/25 00:32:41;;;;;;;3.10;2.10;;;;;;;20.99;100.00;99123.69;105409;1257;59756;-48
2023/07/25 00:35:09;;;;;;;2.40;1.70;;;;;;;20.97;100.00;99121.36;105581;1258;73762;-48
2023/07/25 00:37:36;;;;;;;1.90;1.80;;;;;;;20.95;100.00;99117.59;105626;1258;67670;-47
2023/07/25 00:40:04;;;;;;;2.70;1.90;;;;;;;20.92;100.00;99114.98;105878;1254;70501;-48
2023/07/25 00:42:32;;;;;;;6.20;2.30;;;;;;;20.89;100.00;99113.30;105544;1255;59793;-47
2023/07/25 00:44:59;;;;;;;4.10;1.90;;;;;;;20.84;100.00;99108.63;105488;1256;60452;-49
2023/07/25 00:47:27;;;;;;;5.60;2.00;;;;;;;20.80;100.00;99106.36;105407;1254;73995;-50
2023/07/25 00:49:54;;;;;;;2.60;1.80;;;;;;;20.76;100.00;99104.33;105382;1251;66936;-49
2023/07/25 00:52:22;;;;;;;3.60;2.00;;;;;;;20.72;100.00;99108.43;105454;1258;72641;-47
2023/07/25 00:54:50;;;;;;;3.00;2.30;;;;;;;20.68;100.00;99107.94;105481;1254;60049;-47
2023/07/25 00:57:19;;;;;;;3.00;2.20;;;;;;;20.63;100.00;99106.79;105904;1257;60148;-49
2023/07/25 00:59:47;;;;;;;3.90;2.50;;;;;;;20.58;100.00;99104.52;106629;1254;73026;-48
2023/07/25 01:02:15;;;;;;;5.70;2.10;;;;;;;20.53;100.00;99108.64;105419;1257;69835;-48
2023/07/25 01:04:42;;;;;;;3.30;1.80;;;;;;;20.49;100.00;99111.67;105386;1264;71682;-48
2023/07/25 01:07:12;;;;;;;6.50;2.60;;;;;;;20.44;100.00;99112.53;105645;1256;60057;-47
2023/07/25 01:09:46;;;;;;;3.90;1.30;;;;;;;20.39;100.00;99112.25;105370;1257;60009;-48
2023/07/25 01:12:13;;;;;;;4.30;2.00;;;;;;;20.35;100.00;99114.83;106078;1255;72109;-49
2023/07/25 01:14:40;;;;;;;2.70;2.20;;;;;;;20.30;100.00;99111.82;105508;1257;66608;-48
2023/07/25 01:17:15;;;;;;;2.20;2.00;;;;;;;20.26;100.00;99110.56;105347;1254;71802;-48
2023/07/25 01:19:44;;;;;;;2.30;2.00;;;;;;;20.21;100.00;99099.96;105466;1252;59822;-50
2023/07/25 01:22:11;;;;;;;1.90;1.80;;;;;;;20.18;100.00;99097.56;106276;1257;59848;-49
2023/07/25 01:24:42;;;;;;;3.50;1.70;;;;;;;20.15;100.00;99097.31;105353;1259;73297;-47
2023/07/25 01:27:09;;;;;;;3.50;1.60;;;;;;;20.13;100.00;99097.66;107925;1254;65951;-49
2023/07/25 01:29:36;;;;;;;2.30;1.80;;;;;;;20.12;100.00;99095.39;105447;1251;72772;-48
2023/07/25 01:32:04;;;;;;;1.60;1.50;;;;;;;20.11;100.00;99096.42;105383;1256;60087;-48
2023/07/25 01:34:32;;;;;;;5.90;2.40;;;;;;;20.10;100.00;99104.40;105498;1259;60040;-49
2023/07/25 01:36:59;;;;;;;2.80;2.30;;;;;;;20.08;100.00;99101.13;105616;1257;72482;-48
2023/07/25 01:39:26;;;;;;;4.60;2.90;;;;;;;20.04;100.00;99100.71;105410;1258;67481;-48
2023/07/25 01:41:54;;;;;;;5.00;3.20;;;;;;;20.01;100.00;99101.35;105377;1258;72658;-48
2023/07/25 01:44:21;;;;;;;5.50;3.20;;;;;;;19.99;100.00;99102.36;105390;1258;59740;-49
2023/07/25 01:46:48;;;;;;;3.50;2.60;;;;;;;19.95;100.00;99096.48;105455;1257;59634;-49
2023/07/25 01:49:16;;;;;;;5.20;2.80;;;;;;;19.92;100.00;99100.63;105462;1256;73065;-48
2023/07/25 01:51:43;;;;;;;3.10;2.70;;;;;;;19.89;100.00;99102.95;105394;1251;66147;-48
2023/07/25 01:54:10;;;;;;;4.80;3.10;;;;;;;19.86;100.00;99097.75;105491;1251;72412;-47
2023/07/25 01:56:38;;;;;;;4.10;2.70;;;;;;;19.83;100.00;99096.60;105465;1258;59608;-49
2023/07/25 01:59:05;;;;;;;7.70;3.10;;;;;;;19.80;100.00;99093.44;105246;1251;60009;-49
2023/07/25 02:01:33;;;;;;;3.90;3.20;;;;;;;19.77;100.00;99092.52;109041;1251;72004;-51
2023/07/25 02:04:01;;;;;;;2.50;2.00;;;;;;;19.73;100.00;99097.95;109106;1251;66822;-47
2023/07/25 02:06:28;;;;;;;4.20;2.80;;;;;;;19.71;100.00;99100.50;109151;1251;73032;-47
2023/07/25 02:08:55;;;;;;;4.00;2.30;;;;;;;19.70;100.00;99101.77;109105;1255;61665;-48
2023/07/25 02:11:23;;;;;;;6.80;2.10;;;;;;;19.69;100.00;99098.56;109086;1251;58940;-48
2023/07/25 02:13:50;;;;;;;2.40;1.90;;;;;;;19.68;100.00;99101.16;109188;1251;73101;-48
2023/07/25 02:16:17;;;;;;;2.10;1.90;;;;;;;19.69;100.00;99103.29;108227;1251;66600;-48
2023/07/25 02:18:45;;;;;;;6.00;2.70;;;;;;;19.69;100.00;99102.14;105384;1257;72444;-48
2023/07/25 02:21:12;;;;;;;3.10;2.20;;;;;;;19.70;100.00;99096.98;105401;1254;60574;-48
2023/07/25 02:23:39;;;;;;;2.70;2.40;;;;;;;19.70;100.00;99093.69;105505;1257;60786;-47
2023/07/25 02:26:07;;;;;;;3.60;1.90;;;;;;;19.70;100.00;99092.86;105411;1257;73872;-47
2023/07/25 02:28:34;;;;;;;3.50;2.40;;;;;;;19.69;100.00;99090.90;105313;1258;68310;-46
2023/07/25 02:31:01;;;;;;;6.20;1.70;;;;;;;19.68;100.00;99092.30;105423;1254;72712;-49
2023/07/25 02:33:29;;;;;;;2.60;2.40;;;;;;;19.65;100.00;99092.68;105335;1254;60451;-48
2023/07/25 02:35:56;;;;;;;3.60;2.70;;;;;;;19.63;100.00;99090.17;105931;1257;60477;-47
2023/07/25 02:38:24;;;;;;;2.20;2.00;;;;;;;19.61;100.00;99086.01;105334;1251;72553;-46
2023/07/25 02:40:52;;;;;;;4.30;2.30;;;;;;;19.59;100.00;99083.45;105379;1254;67568;-49
2023/07/25 02:43:22;;;;;;;7.80;2.70;;;;;;;19.56;100.00;99078.63;105347;1251;72646;-48
2023/07/25 02:45:50;;;;;;;6.10;2.40;;;;;;;19.54;100.00;99075.25;105846;1254;60488;-48
2023/07/25 02:48:18;;;;;;;4.70;2.50;;;;;;;19.52;100.00;99075.61;105266;1251;60469;-48
2023/07/25 02:50:45;;;;;;;3.60;2.10;;;;;;;19.50;100.00;99069.92;105392;1255;73838;-48
2023/07/25 02:53:12;;;;;;;6.30;2.10;;;;;;;19.49;100.00;99072.20;105328;1257;67499;-48
2023/07/25 02:55:39;;;;;;;2.50;2.30;;;;;;;19.48;100.00;99074.85;105450;1257;73736;-47
2023/07/25 02:58:07;;;;;;;4.00;2.30;;;;;;;19.49;100.00;99073.35;105362;1258;60550;-48
2023/07/25 03:00:34;;;;;;;2.70;2.20;;;;;;;19.51;100.00;99073.17;105721;1257;60290;-48
2023/07/25 03:03:02;;;;;;;2.70;2.50;;;;;;;19.53;100.00;99071.89;105871;1256;73856;-48
2023/07/25 03:05:29;;;;;;;5.10;3.20;;;;;;;19.54;100.00;99068.78;105339;1257;66459;-47
2023/07/25 03:07:57;;;;;;;3.10;2.10;;;;;;;19.57;100.00;99069.31;105307;1257;72410;-48
2023/07/25 03:10:24;;;;;;;2.10;1.90;;;;;;;19.59;100.00;99075.44;105409;1254;60578;-49
2023/07/25 03:12:52;;;;;;;3.20;2.10;;;;;;;19.62;100.00;99076.67;105421;1254;60470;-47
2023/07/25 03:15:20;;;;;;;2.70;1.60;;;;;;;19.63;100.00;99074.34;105591;1254;75497;-47
2023/07/25 03:17:48;;;;;;;3.60;3.30;;;;;;;19.64;100.00;99068.76;105413;1257;68300;-49
2023/07/25 03:20:15;;;;;;;3.90;2.80;;;;;;;19.66;100.00;99066.38;105151;1251;72660;-49
2023/07/25 03:22:42;;;;;;;3.20;2.40;;;;;;;19.68;100.00;99062.96;105317;1254;60562;-47
2023/07/25 03:25:10;;;;;;;2.40;1.90;;;;;;;19.70;100.00;99064.23;105448;1254;60654;-47
2023/07/25 03:27:37;;;;;;;2.30;2.00;;;;;;;19.72;100.00;99065.33;105599;1257;73908;-48
2023/07/25 03:30:06;;;;;;;4.10;2.10;;;;;;;19.75;100.00;99061.73;105688;1254;68115;-48
2023/07/25 03:32:33;;;;;;;2.30;1.80;;;;;;;19.78;100.00;99057.05;105504;1257;72760;-50
2023/07/25 03:35:00;;;;;;;3.60;2.20;;;;;;;19.83;100.00;99050.96;105526;1257;61613;-47
2023/07/25 03:37:28;;;;;;;2.70;2.10;;;;;;;19.88;100.00;99046.09;105499;1257;59142;-49
2023/07/25 03:39:55;;;;;;;4.20;2.30;;;;;;;19.93;100.00;99038.67;105592;1257;73887;-48
2023/07/25 03:42:22;;;;;;;4.10;2.40;;;;;;;19.97;100.00;99033.45;105539;1258;67970;-47
2023/07/25 03:44:51;;;;;;;4.60;2.40;;;;;;;20.02;100.00;99030.46;105363;1254;72624;-48
2023/07/25 03:47:18;;;;;;;2.70;1.90;;;;;;;20.06;100.00;99030.29;105378;1251;60501;-49
2023/07/25 03:49:45;;;;;;;3.60;3.30;;;;;;;20.09;100.00;99035.66;105400;1257;62296;-47
2023/07/25 03:52:13;;;;;;;9.70;3.40;;;;;;;20.11;100.00;99038.36;105621;1251;73810;-48
2023/07/25 03:54:41;;;;;;;2.70;2.20;;;;;;;20.11;100.00;99041.38;105751;1251;68324;-48
2023/07/25 03:57:08;;;;;;;4.40;2.70;;;;;;;20.12;100.00;99046.41;105308;1254;72489;-47
2023/07/25 03:59:35;;;;;;;2.90;2.50;;;;;;;20.12;100.00;99047.84;105398;1251;61680;-49
2023/07/25 04:02:03;;;;;;;5.80;2.90;;;;;;;20.12;100.00;99049.86;105452;1251;60582;-48
2023/07/25 04:04:30;;;;;;;2.30;2.10;;;;;;;20.13;100.00;99049.43;105377;1251;72534;-49
2023/07/25 04:06:58;;;;;;;2.50;2.10;;;;;;;20.14;100.00;99042.38;105763;1257;67855;-48
2023/07/25 04:09:25;;;;;;;3.60;2.00;;;;;;;20.16;100.00;99043.80;105389;1258;72357;-50
2023/07/25 04:11:52;;;;;;;4.40;2.20;;;;;;;20.19;100.00;99037.00;105344;1254;61285;-48
2023/07/25 04:14:19;;;;;;;2.00;1.90;;;;;;;20.21;100.00;99033.86;105346;1251;60585;-48
2023/07/25 04:16:47;;;;;;;4.10;1.70;;;;;;;20.24;100.00;99027.36;105549;1256;73851;-48
2023/07/25 04:19:15;;;;;;;5.10;2.90;;;;;;;20.26;100.00;99031.55;105509;1256;67568;-49
2023/07/25 04:21:42;;;;;;;9.80;2.50;;;;;;;20.27;100.00;99033.39;105420;1257;71438;-47
2023/07/25 04:24:09;;;;;;;3.30;2.30;;;;;;;20.28;100.00;99035.48;105372;1254;60458;-48
2023/07/25 04:26:37;;;;;;;3.30;2.30;;;;;;;20.31;100.00;99035.97;105431;1251;60904;-47
2023/07/25 04:29:04;;;;;;;4.30;2.40;;;;;;;20.34;100.00;99032.73;105327;1257;73828;-48
2023/07/25 04:31:31;;;;;;;4.70;3.00;;;;;;;20.39;100.00;99040.33;105362;1251;68357;-48
2023/07/25 04:33:59;;;;;;;5.80;1.80;;;;;;;20.44;100.00;99033.98;105289;1254;71053;-48
2023/07/25 04:36:28;;;;;;;2.60;2.20;;;;;;;20.49;100.00;99031.30;105470;1254;61605;-47
2023/07/25 04:38:56;;;;;;;4.70;1.90;;;;;;;20.56;100.00;99038.02;107414;1251;60374;-49
2023/07/25 04:41:24;;;;;;;5.00;2.10;;;;;;;20.64;100.00;99038.69;109213;1250;72894;-50
2023/07/25 04:43:51;;;;;;;3.20;1.70;;;;;;;20.72;100.00;99045.50;109008;1251;66311;-49
2023/07/25 04:46:18;;;;;;;2.60;1.80;;;;;;;20.82;100.00;99042.46;109085;1251;71776;-48
2023/07/25 04:48:46;;;;;;;4.80;1.50;;;;;;;20.94;100.00;99040.35;109145;1254;59006;-49
2023/07/25 04:51:13;;;;;;;4.70;2.10;;;;;;;21.04;100.00;99032.89;108991;1251;59035;-49
2023/07/25 04:53:40;;;;;;;8.50;4.70;;;;;;;21.15;100.00;99025.19;109033;1251;73294;-49
2023/07/25 04:56:08;;;;;;;5.30;3.30;;;;;;;21.26;100.00;99022.66;109104;1253;66631;-50
2023/07/25 04:58:38;;;;;;;10.30;4.00;;;;;;;21.33;100.00;99018.24;109122;1253;71059;-50
2023/07/25 05:01:05;;;;;;;3.60;2.50;;;;;;;21.41;100.00;99016.25;109033;1251;62107;-49
2023/07/25 05:03:33;;;;;;;3.60;2.40;;;;;;;21.50;100.00;99014.84;109136;1250;58731;-48
2023/07/25 05:06:00;;;;;;;4.00;2.20;;;;;;;21.60;100.00;99017.29;109121;1251;74087;-50
2023/07/25 05:08:28;;;;;;;4.90;1.70;;;;;;;21.68;100.00;99013.58;109140;1251;66093;-52
2023/07/25 05:10:55;;;;;;;4.10;1.80;;;;;;;21.78;100.00;99002.34;109200;1253;71299;-53
2023/07/25 05:13:22;;;;;;;6.30;1.90;;;;;;;21.90;100.00;99003.95;109177;1252;58137;-49
2023/07/25 05:15:50;;;;;;;7.20;1.50;;;;;;;22.02;100.00;98999.96;109068;1253;60079;-50
2023/07/25 05:18:17;;;;;;;5.00;1.90;;;;;;;22.13;100.00;98994.14;109127;1251;72527;-51
2023/07/25 05:20:45;;;;;;;10.60;2.40;;;;;;;22.26;100.00;98990.73;109098;1251;66310;-50
2023/07/25 05:23:12;;;;;;;10.20;2.50;;;;;;;22.39;100.00;98987.52;109055;1255;72896;-50
2023/07/25 05:25:39;;;;;;;8.50;2.30;;;;;;;22.51;100.00;98981.78;106820;1254;60045;-51
2023/07/25 05:28:07;;;;;;;7.10;2.50;;;;;;;22.62;100.00;98981.84;104702;1253;60537;-47
2023/07/25 05:30:34;;;;;;;3.40;1.80;;;;;;;22.72;100.00;98984.60;104900;1256;72002;-48
2023/07/25 05:33:02;;;;;;;6.50;2.30;;;;;;;22.83;100.00;98977.75;105018;1253;66515;-48
2023/07/25 05:35:29;;;;;;;4.90;2.30;;;;;;;22.93;100.00;98976.08;106284;1256;72641;-52
2023/07/25 05:37:56;;;;;;;4.20;2.10;;;;;;;23.02;100.00;98975.77;105544;1256;60521;-51
2023/07/25 05:40:24;;;;;;;10.90;2.20;;;;;;;23.10;100.00;98973.80;105065;1252;60300;-50
2023/07/25 05:42:51;;;;;;;6.10;2.20;;;;;;;23.17;100.00;98971.58;104818;1251;73795;-50
2023/07/25 05:45:19;;;;;;;4.80;1.50;;;;;;;23.23;100.00;98971.70;104988;1251;65920;-48
2023/07/25 05:47:47;;;;;;;5.00;1.60;;;;;;;23.29;100.00;98968.11;104748;1257;72923;-49
2023/07/25 05:50:14;;;;;;;2.50;1.90;;;;;;;23.34;100.00;98961.84;104849;1256;62109;-50
2023/07/25 05:52:41;;;;;;;8.40;1.80;;;;;;;23.38;100.00;98960.08;105027;1256;60429;-50
2023/07/25 05:55:09;;;;;;;2.40;1.70;;;;;;;23.44;100.00;98958.21;104791;1251;73181;-48
2023/07/25 05:57:36;;;;;;;4.90;1.70;;;;;;;23.51;100.00;98960.74;105206;1251;67912;-50
2023/07/25 06:00:05;;;;;;;7.20;1.80;;;;;;;23.58;100.00;98961.75;105072;1257;71666;-49
2023/07/25 06:02:33;;;;;;;4.10;2.00;;;;;;;23.66;100.00;98960.95;105174;1256;61192;-50
2023/07/25 06:05:01;;;;;;;7.80;2.10;;;;;;;23.75;100.00;98960.81;105145;1253;60411;-48
2023/07/25 06:07:28;;;;;;;7.50;2.20;;;;;;;23.86;100.00;98959.40;105273;1254;72731;-49
2023/07/25 06:09:55;;;;;;;6.30;2.10;;;;;;;23.96;100.00;98956.95;105190;1257;69299;-49
2023/07/25 06:12:23;;;;;;;5.50;2.40;;;;;;;24.04;100.00;98950.33;105428;1257;71444;-48
2023/07/25 06:14:50;;;;;;;10.70;2.60;;;;;;;24.11;100.00;98948.23;105414;1253;60774;-46
2023/07/25 06:17:18;;;;;;;9.80;2.30;;;;;;;24.18;100.00;98948.13;105339;1256;60638;-50
2023/07/25 06:19:45;;;;;;;5.60;2.90;;;;;;;24.24;100.00;98942.33;105150;1257;73825;-48
2023/07/25 06:22:15;;;;;;;9.30;2.40;;;;;;;24.31;100.00;98938.20;104930;1254;68425;-49
2023/07/25 06:24:43;;;;;;;6.30;2.30;;;;;;;24.38;100.00;98936.59;105073;1253;72696;-48
2023/07/25 06:27:10;;;;;;;8.70;2.30;;;;;;;24.47;100.00;98942.84;105324;1254;60948;-50
2023/07/25 06:29:37;;;;;;;3.90;2.00;;;;;;;24.57;100.00;98937.48;105050;1253;60498;-50
2023/07/25 06:32:05;;;;;;;2.70;1.90;;;;;;;24.67;100.00;98934.10;104944;1254;74286;-49
2023/07/25 06:34:33;;;;;;;4.40;1.90;;;;;;;24.76;100.00;98929.45;105221;1256;67265;-51
2023/07/25 06:37:00;;;;;;;6.30;2.20;;;;;;;24.86;100.00;98928.83;105598;1253;72155;-49
2023/07/25 06:39:28;;;;;;;2.00;1.70;;;;;;;24.95;100.00;98920.69;105246;1254;60423;-47
2023/07/25 06:41:55;;;;;;;2.40;2.10;;;;;;;25.03;100.00;98919.83;105142;1253;60482;-50
2023/07/25 06:44:23;;;;;;;3.40;2.20;;;;;;;25.13;100.00;98911.65;105073;1258;73820;-50
2023/07/25 06:46:51;;;;;;;2.20;1.60;;;;;;;25.22;100.00;98913.08;105552;1254;67102;-50
2023/07/25 06:49:18;;;;;;;1.90;1.50;;;;;;;25.31;100.00;98911.05;105479;1257;71878;-49
2023/07/25 06:51:46;;;;;;;3.10;1.80;;;;;;;25.38;100.00;98904.27;105309;1254;60542;-50
2023/07/25 06:54:15;;;;;;;2.20;1.80;;;;;;;25.46;100.00;98902.18;104756;1253;60702;-51
2023/07/25 06:56:42;;;;;;;5.00;1.70;;;;;;;25.53;100.00;98901.85;104971;1254;73821;-50
2023/07/25 06:59:09;;;;;;;5.90;1.90;;;;;;;25.60;100.00;98901.52;105391;1254;67633;-50
2023/07/25 07:01:37;;;;;;;4.20;1.80;;;;;;;25.69;100.00;98894.40;105406;1253;72705;-52
2023/07/25 07:04:04;;;;;;;2.00;1.80;;;;;;;25.77;100.00;98887.86;105369;1253;60438;-52
2023/07/25 07:06:32;;;;;;;2.20;1.60;;;;;;;25.86;100.00;98886.52;105291;1253;60365;-49
2023/07/25 07:08:59;;;;;;;2.20;1.40;;;;;;;25.95;100.00;98885.80;104977;1253;72633;-50
2023/07/25 07:11:27;;;;;;;4.20;1.80;;;;;;;26.03;100.00;98879.27;105090;1252;66788;-51
2023/07/25 07:13:54;;;;;;;2.30;1.90;;;;;;;26.11;100.00;98871.40;105065;1257;72669;-49
2023/07/25 07:16:21;;;;;;;2.10;1.70;;;;;;;26.20;100.00;98867.14;104922;1256;61041;-52
2023/07/25 07:18:50;;;;;;;4.50;1.70;;;;;;;26.28;100.00;98865.91;104813;1254;60457;-49
2023/07/25 07:21:18;;;;;;;2.60;1.60;;;;;;;26.38;100.00;98859.39;106482;1257;73845;-52
2023/07/25 07:23:45;;;;;;;4.30;1.70;;;;;;;26.48;100.00;98853.89;105401;1253;66833;-49
2023/07/25 07:26:13;;;;;;;1.90;1.80;;;;;;;26.57;100.00;98850.50;105373;1256;72678;-49
2023/07/25 07:28:41;;;;;;;2.30;1.90;;;;;;;26.66;100.00;98843.40;105308;1253;60491;-51
2023/07/25 07:31:09;;;;;;;3.90;1.50;;;;;;;26.76;100.00;98840.02;105359;1253;60533;-50
2023/07/25 07:33:37;;;;;;;2.60;1.20;;;;;;;26.85;100.00;98833.04;105386;1257;73884;-49
2023/07/25 07:36:07;;;;;;;2.10;1.90;;;;;;;26.92;100.00;98838.17;105446;1253;66313;-49
2023/07/25 07:38:35;;;;;;;4.50;1.60;;;;;;;26.96;100.00;98837.80;105335;1256;72685;-51
2023/07/25 07:41:04;;;;;;;1.80;1.60;;;;;;;26.98;100.00;98836.39;105185;1255;61720;-50
2023/07/25 07:43:31;;;;;;;3.30;1.90;;;;;;;27.00;100.00;98833.40;105452;1256;60457;-50
2023/07/25 07:45:59;;;;;;;2.30;1.80;;;;;;;27.04;100.00;98830.92;104876;1253;72560;-51
2023/07/25 07:48:26;;;;;;;4.70;1.80;;;;;;;27.09;100.00;98828.71;104923;1252;65871;-51
2023/07/25 07:50:54;;;;;;;9.40;2.00;;;;;;;27.17;100.00;98825.88;104823;1253;73138;-51
2023/07/25 07:53:21;;;;;;;2.00;1.90;;;;;;;27.26;100.00;98828.19;105270;1254;60611;-52
2023/07/25 07:55:48;;;;;;;1.90;1.80;;;;;;;27.35;100.00;98820.24;105451;1256;60547;-51
2023/07/25 07:58:15;;;;;;;2.40;1.40;;;;;;;27.46;100.00;98819.55;105292;1257;73877;-52
2023/07/25 08:00:43;;;;;;;2.90;2.10;;;;;;;27.57;100.00;98814.14;105066;1251;66743;-51
2023/07/25 08:03:10;;;;;;;2.80;1.60;;;;;;;27.68;100.00;98812.30;104750;1253;75076;-49
2023/07/25 08:05:38;;;;;;;5.90;2.10;;;;;;;27.79;100.00;98805.79;105207;1253;61609;-50
2023/07/25 08:08:05;;;;;;;2.70;2.50;;;;;;;27.90;100.00;98807.06;105429;1256;62788;-50
2023/07/25 08:10:33;;;;;;;1.90;1.80;;;;;;;27.99;100.00;98805.17;109203;1253;74265;-51
2023/07/25 08:13:00;;;;;;;3.70;1.40;;;;;;;28.10;100.00;98801.00;109004;1253;66783;-51
2023/07/25 08:15:28;;;;;;;2.80;1.60;;;;;;;28.20;100.00;98800.33;108851;1253;72740;-50
2023/07/25 08:17:55;;;;;;;1.50;1.40;;;;;;;28.32;100.00;98794.73;109045;1253;62166;-52
2023/07/25 08:20:22;;;;;;;1.60;1.40;;;;;;;28.43;100.00;98795.39;109232;1252;59432;-52
2023/07/25 08:22:50;;;;;;;2.00;1.40;;;;;;;28.52;100.00;98786.45;109130;1253;73808;-52
2023/07/25 08:25:17;;;;;;;3.60;1.80;;;;;;;28.61;100.00;98786.92;109053;1253;67517;-51
2023/07/25 08:27:44;;;;;;;3.40;1.50;;;;;;;28.68;100.00;98780.79;109083;1252;72456;-51
2023/07/25 08:30:12;;;;;;;4.20;1.60;;;;;;;28.75;100.00;98784.08;109184;1253;59640;-52
2023/07/25 08:32:39;;;;;;;3.30;1.90;;;;;;;28.82;100.00;98781.59;106082;1252;60533;-51
2023/07/25 08:35:07;;;;;;;3.70;2.00;;;;;;;28.88;100.00;98780.35;105648;1256;73803;-52
2023/07/25 08:37:35;;;;;;;3.20;1.80;;;;;;;28.94;100.00;98783.79;106844;1259;69914;-50
2023/07/25 08:40:02;;;;;;;6.00;1.60;;;;;;;28.99;100.00;98776.58;105368;1254;73356;-50
2023/07/25 08:42:31;;;;;;;3.60;1.80;;;;;;;29.05;100.00;98778.58;105161;1256;60506;-51
2023/07/25 08:44:59;;;;;;;2.30;1.90;;;;;;;29.11;100.00;98776.52;105313;1254;62268;-51
2023/07/25 08:47:27;;;;;;;2.10;1.90;;;;;;;29.18;100.00;98771.82;105387;1257;73829;-52
2023/07/25 08:49:58;;;;;;;3.20;1.70;;;;;;;29.28;100.00;98763.31;105597;1257;67379;-49
2023/07/25 08:52:27;;;;;;;3.10;2.00;;;;;;;29.36;100.00;98761.39;105362;1258;72695;-51
2023/07/25 08:54:55;;;;;;;3.40;1.80;;;;;;;29.40;100.00;98758.10;105621;1253;61001;-50
2023/07/25 08:57:22;;;;;;;3.50;2.30;;;;;;;29.41;100.00;98751.80;105925;1253;60475;-50
2023/07/25 08:59:50;;;;;;;2.30;1.80;;;;;;;29.39;100.00;98748.26;105443;1257;74245;-51
2023/07/25 09:02:18;;;;;;;2.00;1.80;;;;;;;29.35;100.00;98746.94;105460;1253;68127;-50
2023/07/25 09:04:46;;;;;;;3.00;1.50;;;;;;;29.32;100.00;98740.02;105445;1251;72739;-50
2023/07/25 09:07:13;;;;;;;4.40;1.90;;;;;;;29.30;100.00;98744.33;105439;1253;60430;-49
2023/07/25 09:09:41;;;;;;;2.10;2.00;;;;;;;29.31;100.00;98741.59;105302;1254;60547;-49
2023/07/25 09:12:08;;;;;;;3.20;1.50;;;;;;;29.33;100.00;98740.41;105471;1256;73750;-51
2023/07/25 09:14:39;;;;;;;2.30;1.40;;;;;;;29.37;100.00;98739.34;105372;1253;66726;-52
2023/07/25 09:17:07;;;;;;;1.60;1.40;;;;;;;29.42;100.00;98739.46;105599;1256;72692;-51
2023/07/25 09:19:34;;;;;;;5.20;1.40;;;;;;;29.48;100.00;98741.83;105722;1251;60517;-51
2023/07/25 09:22:02;;;;;;;2.40;1.50;;;;;;;29.52;100.00;98736.14;105557;1253;60621;-51
2023/07/25 09:24:36;;;;;;;2.80;1.80;;;;;;;29.58;100.00;98731.51;105342;1258;73853;-50
2023/07/25 09:27:14;;;;;;;2.90;1.90;;;;;;;29.61;100.00;98725.73;105772;1252;65517;-51
2023/07/25 09:29:42;;;;;;;2.30;1.50;;;;;;;29.66;100.00;98723.62;105570;1251;72648;-52
2023/07/25 09:32:28;;;;;;;3.20;2.30;;;;;;;29.69;100.00;98722.40;105520;1256;60559;-51
2023/07/25 09:34:56;;;;;;;1.50;1.40;;;;;;;29.72;100.00;98724.17;105579;1251;60888;-50
2023/07/25 09:37:24;;;;;;;2.30;1.70;;;;;;;29.75;100.00;98722.89;105499;1250;73929;-50
2023/07/25 09:39:51;;;;;;;3.90;2.10;;;;;;;29.78;100.00;98714.11;105481;1256;66770;-49
2023/07/25 09:42:23;;;;;;;1.70;1.60;;;;;;;29.81;100.00;98710.61;105801;1255;74548;-51
2023/07/25 09:44:51;;;;;;;3.80;1.50;;;;;;;29.85;100.00;98710.21;105655;1252;60560;-49
2023/07/25 09:47:23;;;;;;;2.00;1.90;;;;;;;29.87;100.00;98712.56;105568;1253;60318;-50
2023/07/25 09:49:52;;;;;;;2.40;1.90;;;;;;;29.91;100.00;98711.70;105430;1258;73794;-50
2023/07/25 09:52:19;;;;;;;4.40;1.70;;;;;;;29.95;100.00;98715.74;106091;1256;66898;-51
2023/07/25 09:54:47;;;;;;;2.40;1.60;;;;;;;29.97;100.00;98714.41;105468;1258;72439;-52
2023/07/25 09:57:14;;;;;;;2.70;1.90;;;;;;;30.02;100.00;98712.02;105314;1257;60426;-51
2023/07/25 09:59:41;;;;;;;2.20;1.90;;;;;;;30.02;100.00;98710.16;105547;1256;60453;-51
2023/07/25 10:02:09;;;;;;;2.50;1.60;;;;;;;30.05;100.00;98703.52;105266;1258;74358;-53
2023/07/25 10:04:38;;;;;;;3.70;1.90;;;;;;;30.07;100.00;98703.13;105376;1256;65521;-53
2023/07/25 10:07:05;;;;;;;2.10;1.90;;;;;;;30.08;100.00;98701.97;105107;1254;72658;-50
2023/07/25 10:09:33;;;;;;;5.10;2.00;;;;;;;30.08;100.00;98706.45;105376;1254;60496;-53
2023/07/25 10:12:03;;;;;;;2.70;1.90;;;;;;;30.08;100.00;98709.95;105372;1253;60588;-51
2023/07/25 10:16:34;;;;;;;3.90;2.20;;;;;;;30.12;100.00;98735.34;102270;1291;601818;-51
2023/07/25 10:19:01;;;;;;;4.80;2.30;;;;;;;30.13;100.00;98728.31;104254;1270;60091;-51
2023/07/25 10:21:45;;;;;;;4.90;2.30;;;;;;;30.15;100.00;98728.69;104331;1267;59982;-51
2023/07/25 10:24:13;;;;;;;;;;;;;;;30.20;100.00;98725.80;105140;1265;72282;-51
2023/07/25 10:26:57;;;;;;;4.20;2.00;;;;;;;30.24;100.00;98725.55;104892;1267;65932;-51
2023/07/25 10:29:38;;;;;;;2.40;2.30;;;;;;;30.28;100.00;98723.27;104225;1267;434313;-53
2023/07/25 10:32:06;;;;;;;2.30;2.20;;;;;;;30.33;100.00;98722.59;105717;1270;60133;-52
2023/07/25 10:35:01;;;;;;;3.20;2.90;;;;;;;30.39;100.00;98722.48;104513;1264;60444;-51
2023/07/25 10:37:36;;;;;;;3.00;2.40;;;;;;;30.47;100.00;98717.46;104190;1266;70589;-52
2023/07/25 10:40:12;;;;;;;4.70;2.20;;;;;;;30.52;100.00;98711.27;104272;1264;69523;-51
2023/07/25 10:42:46;;;;;;;3.20;2.70;;;;;;;30.53;100.00;98706.04;104816;1264;72669;-53
2023/07/25 10:45:32;;;;;;;4.70;2.40;;;;;;;30.54;100.00;98700.17;105362;1266;60039;-52
2023/07/25 10:48:00;;;;;;;3.00;2.70;;;;;;;30.51;100.00;98699.56;104613;1264;60039;-50
2023/07/25 10:50:51;;;;;;;2.80;2.20;;;;;;;30.44;100.00;98692.29;108298;1263;73414;-53
2023/07/25 10:53:22;;;;;;;3.40;3.10;;;;;;;30.41;100.00;98690.34;108395;1263;65819;-53
2023/07/25 10:56:05;;;;;;;2.30;2.20;;;;;;;30.43;100.00;98683.08;108294;1264;72596;-52
2023/07/25 10:58:55;;;;;;;4.00;2.70;;;;;;;30.48;100.00;98686.91;108262;1263;62375;-53
2023/07/25 11:01:33;;;;;;;3.60;3.30;;;;;;;30.55;100.00;98680.31;108322;1263;58751;-51
2023/07/25 11:04:19;;;;;;;3.60;3.30;;;;;;;30.61;100.00;98683.79;108349;1263;73376;-52
2023/07/25 11:06:48;;;;;;;4.10;3.80;;;;;;;30.65;100.00;98685.50;107263;1266;66880;-52
2023/07/25 11:09:15;;;;;;;4.10;3.80;;;;;;;30.65;100.00;98680.48;108294;1263;72582;-52
2023/07/25 11:11:47;;;;;;;3.40;3.10;;;;;;;30.62;100.00;98679.99;108480;1263;60072;-52
2023/07/25 11:14:15;;;;;;;3.80;3.60;;;;;;;30.57;100.00;98675.07;108366;1263;58221;-52
2023/07/25 11:16:43;;;;;;;4.10;3.80;;;;;;;30.57;100.00;98673.70;108473;1263;73066;-51
2023/07/25 11:19:11;;;;;;;4.20;3.90;;;;;;;30.58;100.00;98663.83;108316;1266;65509;-52
2023/07/25 11:21:43;;;;;;;4.00;3.70;;;;;;;30.64;100.00;98659.45;108361;1264;71805;-50
2023/07/25 11:24:11;;;;;;;4.90;4.30;;;;;;;30.70;100.00;98655.51;108365;1266;58836;-52